Sotirios Mitroglou

Olheiro - Asteras
20 Fev 2028
Domingo
Processo

Personalidade

Adaptabilidade (19) Ambição (9) Controvérsia (9) Lealdade (10) Pressão (15) Profissionalismo (20) Espírito Esportivo (13) Temperamento (11)

Perfil

Estilo de Treinamento Democrático
Licença Continental C
Determinação 5
Gestão de Pessoas 6
Motivação 11
Disciplina 4
Satisfação no Trabalho
100%
Fadiga
0%
Função Olheiro
Salário 18.9K p/s
Contrato 14.03.2028

Desempenho

Comportamento Bom
Eficácia do Treinamento
41%
Desenvolvimento do Jogador
45%
Prevenção de Lesões
60%
Implementação Tática
40%

Eventos Recentes

Negociação de contrato iniciada agora
Participou de uma reunião de recrutamento agora
Participou de uma reunião de recrutamento agora
Negociação de contrato iniciada agora
Negociação de contrato iniciada agora
Negociação de contrato iniciada agora
Negociação de contrato iniciada 7d atrás
Negociação de contrato iniciada 7d atrás

Monitorando agora

105
Jogador Clube Status Habilidade Confiança Observado Última observação Último voto
Karl Madianga OFI Ativo 88 / 102 55% 1 17.01.2028 -
Taher Mohamed Real Salt Lake Negociando 119 / 119 67% 1 01.01.2028 -
Khama Dolly Utrecht Negociando 123 / 124 67% 1 01.06.2027 -
Razvan Mitrita San Diego Football Club Negociando 118 / 120 66% 1 01.06.2027 -
Juan Bezerra BK Hacken Negociando 117 / 121 66% 1 01.06.2027 -
Shota Shekiladze Akhmat Grozny Negociando 110 / 110 66% 1 01.06.2027 -
Ethan Galbraith Swansea City Ativo 138 / 126 40% 4 30.05.2027 -
Evagoras Charalabous Anorthosis Ativo 104 / 99 40% 1 30.05.2027 -
Idris El Mizouni Leyton Orient Ativo 126 / 112 40% 1 29.05.2027 -
Zeidane Inoussa Swansea City Ativo 122 / 118 40% 1 29.05.2027 -
Leo Castledine Middlesbrough Ativo 139 / 140 40% 7 28.05.2027 -
Nicolas Verkooijen PSV Ativo 101 / 117 40% 1 28.05.2027 -
Scott Twine Bristol City Ativo 128 / 122 40% 1 27.05.2027 -
Richard Koné Queens Park Rangers Ativo 119 / 119 40% 1 27.05.2027 -
Amaury Morales Pumas UNAM Ativo 132 / 130 40% 1 26.05.2027 -
Anestis Mythou PAOK Ativo 107 / 102 40% 4 25.05.2027 -
Bosun Lawal Stoke City Ativo 128 / 121 40% 1 24.05.2027 -
Maren Kefas Plateau United Ativo 96 / 90 40% 2 23.05.2027 -
Milan van Ewijk Mansfield Town Ativo 135 / 127 40% 1 23.05.2027 -
Ezekiel Kwame Alladoh Philadelphia Union Ativo 129 / 129 40% 4 21.05.2027 -
Stanley Mills Oxford United Ativo 127 / 120 40% 1 21.05.2027 -
Isaiah Jones Luton Town Ativo 130 / 128 40% 1 21.05.2027 -
Adama Goïta Remo Stars Ativo 90 / 104 40% 1 21.05.2027 -
Ben Ahmed Kohili Paradou Ativo 118 / 97 40% 4 19.05.2027 -
Iwan Morgan Grimsby Town Ativo 109 / 110 40% 3 18.05.2027 -
Tiziano Dornell Danubio Ativo 110 / 120 40% 1 18.05.2027 -
Lévy Néne FC Nordsjaelland Ativo 118 / 129 40% 2 16.05.2027 -
Tomáš Rigo Stoke City Ativo 140 / 128 40% 1 15.05.2027 -
Jack Diamond Stockport County Ativo 123 / 121 40% 1 14.05.2027 -
Tyler Goodrham Oxford United Ativo 126 / 121 40% 1 14.05.2027 -
Toby Collyer West Bromwich Albion Ativo 129 / 125 40% 1 13.05.2027 -
Lewis Bate Stockport County Ativo 127 / 120 40% 2 12.05.2027 -
Pelle Mattsson Norwich City Ativo 134 / 126 40% 1 12.05.2027 -
Lorenzo De Leo Renate Ativo 94 / 103 40% 2 11.05.2027 -
Christos Mouzakitis Hull City Ativo 139 / 129 40% 2 10.05.2027 -
Joel Bagan Cardiff City Ativo 113 / 116 40% 1 10.05.2027 -
Víctor Guzmán Sporting CP Ativo 89 / 107 40% 2 08.05.2027 -
Agustín Fernández NK Zavrc Ativo 94 / 95 40% 1 08.05.2027 -
Luke Baartman ES Mostaganem Ativo 116 / 122 40% 3 06.05.2027 -
Borna Knezović Casarano Ativo 94 / 104 40% 1 06.05.2027 -
Giorgi Chakvetadze Watford Ativo 120 / 121 40% 2 05.05.2027 -
Nicolas Madsen Queens Park Rangers Ativo 138 / 131 40% 2 05.05.2027 -
Ethan Williams Peterborough United Ativo 117 / 122 40% 3 04.05.2027 -
Jason Knight Bristol City Ativo 135 / 128 40% 1 04.05.2027 -
Angelos Neofytou Omonoia Ativo 96 / 107 40% 2 03.05.2027 -
Max Bird Birmingham Ativo 133 / 126 40% 2 01.05.2027 -
Will Fish Cardiff City Ativo 119 / 120 40% 2 01.05.2027 -
Callum Doyle Wrexham Ativo 129 / 124 40% 1 28.04.2027 -
Zak Swanson Bradford City Ativo 120 / 114 40% 2 27.04.2027 -
Jacques Ekomié Wrexham Ativo 135 / 125 40% 1 27.04.2027 -
Mateus Mané Manchester United Ativo 123 / 145 40% 2 26.04.2027 -
Oliver Skipp Leicester City Ativo 133 / 136 40% 2 25.04.2027 -
Darlvin Yeboah Bechem United Ativo 78 / 85 40% 3 25.04.2027 -
Godbless Ayeke AS Korofina Ativo 90 / 81 40% 1 23.04.2027 -
Chem Campbell Stevenage Ativo 109 / 123 40% 1 23.04.2027 -
Darlin Yongwa Norwich City Ativo 120 / 120 40% 2 22.04.2027 -
Adilson Malanda Middlesbrough Ativo 139 / 134 40% 1 22.04.2027 -
Luca Mazzeo Potenza Ativo 108 / 96 40% 1 21.04.2027 -
Miloš Jovičić Zabbar St. Patrick Ativo 82 / 87 40% 1 21.04.2027 -
Shea Charles Southampton Ativo 143 / 138 40% 1 21.04.2027 -
Mathias Jørgensen Blackburn Rovers Ativo 117 / 122 40% 1 20.04.2027 -
Luke McNally Bristol City Ativo 130 / 127 40% 2 19.04.2027 -
Kellen Fisher Norwich City Ativo 120 / 130 40% 2 18.04.2027 -
Emanuel Aiwu Apollon Ativo 112 / 114 40% 1 18.04.2027 -
Serge Daura Cotonsport Garoua Ativo 96 / 98 40% 1 18.04.2027 -
Mduduzi Shabalala Kaizer Chiefs Ativo 104 / 115 40% 3 16.04.2027 -
Tyreece Campbell Charlton Athletic Ativo 122 / 112 40% 1 15.04.2027 -
Finn Azaz Southampton Ativo 143 / 123 40% 1 12.04.2027 -
Juan Mosquera Sheffield Wednesday Ativo 130 / 121 40% 2 11.04.2027 -
Welington Southampton Ativo 127 / 137 40% 4 10.04.2027 -
David Turnbull Cardiff City Ativo 122 / 112 40% 1 10.04.2027 -
Edoardo Bove Watford Ativo 131 / 130 40% 1 09.04.2027 -
Chineme Chinonso Ikorodu City Ativo 105 / 101 40% 3 07.04.2027 -
Baba N'Diaye Chelyabinsk Ativo 85 / 87 40% 2 05.04.2027 -
Tariq Lamptey Queens Park Rangers Ativo 126 / 131 40% 1 04.04.2027 -
Federico Serra Arezzo Ativo 97 / 96 40% 1 03.04.2027 -
Hazeem Bakre Crawley Town Ativo 71 / 91 40% 1 03.04.2027 -
Othmane Maamma Watford Ativo 114 / 121 40% 1 03.04.2027 -
Jack McGlynn Stoke City Ativo 133 / 125 40% 1 03.04.2027 -
Adam Randell Bristol City Ativo 132 / 129 40% 1 02.04.2027 -
Teden Mengi Luton Town Ativo 115 / 122 40% 1 02.04.2027 -
Gustavo Ferreira Benfica Ativo 93 / 97 40% 1 01.04.2027 -
Dramane Kamagaté USM Alger Ativo 99 / 120 40% 1 31.03.2027 -
Wendell Livyi Bereh Ativo 100 / 94 40% 2 30.03.2027 -
David Kalokoh Ajax Ativo 120 / 125 40% 1 30.03.2027 -
Will Lankshear Middlesbrough Ativo 133 / 132 40% 2 29.03.2027 -
Othmane Boussaid Aris Thessaloniki Ativo 136 / 119 40% 1 27.03.2027 -
Matvii Ponomarenko Dynamo Kyiv Ativo 109 / 113 40% 1 27.03.2027 -
Japhet Tanganga Sheffield United Ativo 144 / 129 40% 1 23.03.2027 -
Bobby Thomas Coventry City Ativo 141 / 126 40% 1 23.03.2027 -
Alagie Wally Veres Ativo 88 / 84 40% 1 22.03.2027 -
Williams Manyama SuperSport United Ativo 117 / 112 40% 1 22.03.2027 -
Dom Ballard Leyton Orient Ativo 133 / 127 40% 1 21.03.2027 -
Jacob Greaves Ipswich Town Ativo 137 / 135 40% 1 21.03.2027 -
Juan David Delgado Chernihiv Ativo 71 / 87 40% 1 20.03.2027 -
Josh Edwards Charlton Athletic Ativo 134 / 118 40% 1 20.03.2027 -
Josh Tymon Swansea City Ativo 129 / 119 40% 1 19.03.2027 -
Tshepang Moremi Orlando Pirates Ativo 131 / 119 40% 1 18.03.2027 Mais informações
Derensili Sanches Fernandes Huddersfield Town Ativo 125 / 115 40% 1 17.03.2027 -
Mattéo Tramoni Pisa Ativo 139 / 129 40% 1 16.03.2027 -
Ronald Swansea City Ativo 117 / 134 40% 1 16.03.2027 -
Álvaro Carrillo APOEL Ativo 117 / 129 40% 1 14.03.2027 -
Mandla Erasmus SuperSport United Ativo 102 / 118 40% 1 13.03.2027 -
Danil Glebov Dinamo Moscow Ativo 135 / 126 40% 1 13.03.2027 -
Nicolò Savona Nottingham Forest Ativo 155 / 139 40% 1 08.03.2027 -